Time;durP1;ratioP1;P1;durP2;ratioP2;P2;SDS_P1;SDS_P2;PMS_P1;PMS_P2;Temp;Humidity;BMP_temperature;BMP_pressure;BME280_temperature;BME280_humidity;BME280_pressure;Samples;Min_cycle;Max_cycle;Signal;HPM_P1;HPM_P2
2023/10/24 00:00:31;;;;;;;9.40;5.13;;;10.30;99.90;;;;;;5068869;28;20655;-60
2023/10/24 00:02:57;;;;;;;9.43;4.60;;;10.30;99.90;;;;;;5068770;28;20175;-59
2023/10/24 00:05:22;;;;;;;8.73;4.70;;;10.30;99.90;;;;;;5069056;28;20538;-59
2023/10/24 00:07:49;;;;;;;8.50;4.93;;;10.40;99.90;;;;;;5065540;28;20236;-62
2023/10/24 00:10:16;;;;;;;7.00;4.40;;;10.30;99.90;;;;;;5066872;28;20213;-63
2023/10/24 00:12:42;;;;;;;6.33;4.73;;;10.30;99.90;;;;;;5068237;28;20439;-60
2023/10/24 00:15:08;;;;;;;7.57;4.50;;;10.30;99.90;;;;;;5067537;28;20951;-61
2023/10/24 00:17:33;;;;;;;10.13;4.90;;;10.30;99.90;;;;;;5065698;28;20209;-60
2023/10/24 00:19:59;;;;;;;7.17;4.70;;;10.30;99.90;;;;;;5063298;28;20443;-61
2023/10/24 00:22:25;;;;;;;7.33;4.20;;;10.30;99.90;;;;;;5070084;28;20178;-62
2023/10/24 00:24:51;;;;;;;14.90;5.10;;;10.30;99.90;;;;;;5068695;28;20197;-61
2023/10/24 00:27:16;;;;;;;9.50;4.50;;;10.20;99.90;;;;;;5065221;28;20441;-60
2023/10/24 00:29:42;;;;;;;5.80;4.63;;;10.20;99.90;;;;;;5064821;28;20190;-60
2023/10/24 00:32:07;;;;;;;12.70;4.17;;;10.20;99.90;;;;;;5067820;28;20232;-60
2023/10/24 00:34:33;;;;;;;6.47;4.10;;;10.20;99.90;;;;;;5068180;28;20733;-61
2023/10/24 00:36:59;;;;;;;9.53;4.33;;;10.20;99.90;;;;;;5066607;28;20236;-60
2023/10/24 00:39:24;;;;;;;6.90;5.40;;;10.20;99.90;;;;;;5066808;28;20698;-60
2023/10/24 00:41:50;;;;;;;7.70;5.10;;;10.10;99.90;;;;;;5067604;28;20209;-60
2023/10/24 00:44:15;;;;;;;7.13;4.67;;;10.10;99.90;;;;;;5072414;28;20182;-60
2023/10/24 00:46:41;;;;;;;12.60;4.20;;;10.10;99.90;;;;;;5065961;28;20754;-60
2023/10/24 00:49:08;;;;;;;6.97;4.40;;;10.10;99.90;;;;;;5067340;28;20232;-60
2023/10/24 00:51:34;;;;;;;5.83;4.60;;;10.10;99.90;;;;;;5062018;28;20629;-60
2023/10/24 00:54:01;;;;;;;5.03;4.10;;;10.00;99.90;;;;;;5065463;28;21333;-61
2023/10/24 00:56:29;;;;;;;5.03;4.30;;;10.00;99.90;;;;;;5069073;28;20449;-60
2023/10/24 00:58:56;;;;;;;7.87;3.90;;;10.00;99.90;;;;;;5065406;28;20408;-60
2023/10/24 01:01:23;;;;;;;6.20;4.10;;;10.00;99.90;;;;;;5066105;28;20421;-61
2023/10/24 01:03:49;;;;;;;6.20;4.00;;;10.00;99.90;;;;;;5064849;28;20482;-61
2023/10/24 01:06:16;;;;;;;8.00;4.50;;;10.00;99.90;;;;;;5068189;28;20463;-61
2023/10/24 01:08:42;;;;;;;7.63;4.97;;;10.00;99.90;;;;;;5068337;28;20465;-60
2023/10/24 01:11:08;;;;;;;8.87;5.23;;;10.00;99.90;;;;;;5061969;28;20795;-60
2023/10/24 01:13:34;;;;;;;10.80;5.00;;;9.90;99.90;;;;;;5066417;28;20432;-61
2023/10/24 01:15:59;;;;;;;6.00;4.50;;;9.90;99.90;;;;;;5067283;28;20417;-61
2023/10/24 01:18:25;;;;;;;6.17;4.30;;;9.90;99.90;;;;;;5067266;28;20432;-60
2023/10/24 01:20:50;;;;;;;8.60;4.93;;;9.90;99.90;;;;;;5066297;28;20759;-61
2023/10/24 01:23:17;;;;;;;7.67;5.27;;;9.90;99.90;;;;;;5068401;28;20177;-60
2023/10/24 01:25:43;;;;;;;9.80;5.47;;;9.80;99.90;;;;;;5065846;28;20232;-61
2023/10/24 01:28:09;;;;;;;9.20;5.10;;;9.80;99.90;;;;;;5064689;28;20461;-60
2023/10/24 01:30:37;;;;;;;7.43;4.60;;;9.80;99.90;;;;;;5066216;28;20428;-61
2023/10/24 01:33:03;;;;;;;5.90;4.50;;;9.80;99.90;;;;;;5066008;28;20413;-60
2023/10/24 01:35:28;;;;;;;8.13;5.03;;;9.80;99.90;;;;;;5065987;28;20867;-62
2023/10/24 01:37:54;;;;;;;8.30;5.03;;;9.80;99.90;;;;;;5062058;28;20607;-60
2023/10/24 01:40:19;;;;;;;7.60;4.97;;;9.80;99.90;;;;;;5063540;28;20202;-61
2023/10/24 01:42:45;;;;;;;10.37;5.30;;;9.80;99.90;;;;;;5070423;28;20173;-60
2023/10/24 01:45:11;;;;;;;6.30;5.10;;;9.70;99.90;;;;;;5067438;28;20786;-60
2023/10/24 01:47:36;;;;;;;5.27;4.37;;;9.80;99.90;;;;;;5068114;28;20201;-61
2023/10/24 01:50:03;;;;;;;10.47;5.10;;;9.80;99.90;;;;;;5065765;28;20186;-60
2023/10/24 01:52:28;;;;;;;7.30;4.87;;;9.70;99.90;;;;;;5072047;28;20177;-60
2023/10/24 01:54:54;;;;;;;7.97;4.70;;;9.70;99.90;;;;;;5067602;28;20437;-60
2023/10/24 01:57:20;;;;;;;4.93;4.43;;;9.70;99.90;;;;;;5065310;28;20539;-61
2023/10/24 01:59:46;;;;;;;7.23;4.50;;;9.70;99.90;;;;;;5063186;28;20277;-61
2023/10/24 02:02:11;;;;;;;10.10;4.70;;;9.70;99.90;;;;;;5065888;28;20829;-61
2023/10/24 02:04:37;;;;;;;7.20;4.43;;;9.70;99.90;;;;;;5064175;28;20852;-60
2023/10/24 02:07:03;;;;;;;7.53;4.00;;;9.70;99.90;;;;;;5061824;28;20174;-60
2023/10/24 02:09:30;;;;;;;5.47;4.80;;;9.70;99.90;;;;;;5065224;28;20217;-60
2023/10/24 02:11:58;;;;;;;6.73;4.20;;;9.70;99.90;;;;;;5057335;28;20770;-60
2023/10/24 02:14:24;;;;;;;6.30;4.73;;;9.70;99.90;;;;;;5055588;28;20524;-61
2023/10/24 02:16:49;;;;;;;7.43;4.10;;;9.60;99.90;;;;;;5064554;28;20515;-61
2023/10/24 02:19:15;;;;;;;11.00;4.43;;;9.60;99.90;;;;;;5063577;28;20198;-60
2023/10/24 02:21:41;;;;;;;13.43;4.77;;;9.60;99.90;;;;;;5066413;28;20178;-61
2023/10/24 02:24:06;;;;;;;9.33;4.07;;;9.60;99.90;;;;;;5064918;28;20316;-60
2023/10/24 02:26:32;;;;;;;7.27;4.30;;;9.60;99.90;;;;;;5067061;28;20171;-60
2023/10/24 02:28:57;;;;;;;8.63;4.40;;;9.60;99.90;;;;;;5066712;28;20189;-60
2023/10/24 02:31:23;;;;;;;7.40;5.07;;;9.60;99.90;;;;;;5062233;28;20252;-60
2023/10/24 02:33:49;;;;;;;11.70;5.10;;;9.60;99.90;;;;;;5070011;28;20181;-62
2023/10/24 02:36:15;;;;;;;14.53;5.40;;;9.50;99.90;;;;;;5063351;28;20616;-62
2023/10/24 02:38:41;;;;;;;7.47;4.43;;;9.50;99.90;;;;;;5062585;28;20531;-60
2023/10/24 02:41:07;;;;;;;8.77;4.00;;;9.50;99.90;;;;;;5067546;28;20194;-61
2023/10/24 02:43:33;;;;;;;7.30;4.10;;;9.60;99.90;;;;;;5065534;28;20820;-61
2023/10/24 02:46:03;;;;;;;6.83;4.40;;;9.60;99.90;;;;;;5065400;28;21024;-59
2023/10/24 02:48:29;;;;;;;8.97;4.30;;;9.60;99.90;;;;;;5064777;28;20198;-60
2023/10/24 02:50:55;;;;;;;6.30;4.10;;;9.60;99.90;;;;;;5069258;28;20433;-61
2023/10/24 02:53:21;;;;;;;5.03;4.03;;;9.60;99.90;;;;;;5063094;28;20614;-61
2023/10/24 02:55:48;;;;;;;6.00;4.53;;;9.60;99.90;;;;;;5066178;28;20440;-62
2023/10/24 02:58:14;;;;;;;7.70;4.73;;;9.60;99.90;;;;;;5066032;28;20421;-60
2023/10/24 03:00:40;;;;;;;5.80;4.80;;;9.60;99.90;;;;;;5070476;28;20499;-61
2023/10/24 03:03:06;;;;;;;10.20;5.00;;;9.60;99.90;;;;;;5065967;28;20792;-61
2023/10/24 03:05:32;;;;;;;9.13;4.43;;;9.60;99.90;;;;;;5064601;28;20954;-61
2023/10/24 03:07:58;;;;;;;7.80;4.33;;;9.60;99.90;;;;;;5064402;28;20745;-60
2023/10/24 03:10:25;;;;;;;7.50;4.33;;;9.60;99.90;;;;;;5068507;28;20259;-61
2023/10/24 03:12:52;;;;;;;6.13;3.97;;;9.60;99.90;;;;;;5063294;28;20213;-59
2023/10/24 03:15:17;;;;;;;6.30;4.00;;;9.60;99.90;;;;;;5064618;28;20424;-61
2023/10/24 03:17:43;;;;;;;6.90;3.97;;;9.50;99.90;;;;;;5068839;28;20823;-59
2023/10/24 03:20:09;;;;;;;8.30;4.43;;;9.50;99.90;;;;;;5062417;28;20194;-61
2023/10/24 03:22:35;;;;;;;8.33;4.20;;;9.50;99.90;;;;;;5064005;28;20716;-61
2023/10/24 03:25:01;;;;;;;10.17;4.90;;;9.50;99.90;;;;;;5065626;28;20487;-61
2023/10/24 03:27:26;;;;;;;6.47;4.47;;;9.50;99.90;;;;;;5064976;28;20258;-61
2023/10/24 03:29:52;;;;;;;7.23;4.00;;;9.50;99.90;;;;;;5064986;28;20240;-60
2023/10/24 03:32:18;;;;;;;6.10;4.90;;;9.40;99.90;;;;;;5060790;28;20274;-61
2023/10/24 03:34:43;;;;;;;5.73;4.23;;;9.50;99.90;;;;;;5070872;28;20183;-60
2023/10/24 03:37:09;;;;;;;7.90;4.40;;;9.40;99.90;;;;;;5071012;28;20174;-61
2023/10/24 03:39:35;;;;;;;7.33;4.40;;;9.40;99.90;;;;;;5068361;28;20224;-60
2023/10/24 03:42:00;;;;;;;8.30;5.00;;;9.40;99.90;;;;;;5068054;28;20678;-60
2023/10/24 03:44:26;;;;;;;7.40;4.47;;;9.40;99.90;;;;;;5068744;28;20194;-60
2023/10/24 03:46:52;;;;;;;6.67;4.40;;;9.40;99.90;;;;;;5072032;28;20178;-61
2023/10/24 03:49:17;;;;;;;5.80;4.20;;;9.40;99.90;;;;;;5068182;28;20213;-60
2023/10/24 03:51:43;;;;;;;6.37;4.73;;;9.40;99.90;;;;;;5065433;28;20174;-61
2023/10/24 03:54:09;;;;;;;7.57;4.70;;;9.40;99.90;;;;;;5064553;28;20193;-63
2023/10/24 03:56:38;;;;;;;6.07;5.20;;;9.40;99.90;;;;;;5069108;28;20559;-60
2023/10/24 03:59:04;;;;;;;14.43;4.80;;;9.30;99.90;;;;;;5065251;28;20413;-60
2023/10/24 04:01:30;;;;;;;8.40;4.50;;;9.40;99.90;;;;;;5066444;28;20471;-61
2023/10/24 04:03:56;;;;;;;8.53;4.97;;;9.30;99.90;;;;;;5067618;28;20513;-60
2023/10/24 04:06:21;;;;;;;11.03;4.37;;;9.30;99.90;;;;;;5068787;28;20185;-61
2023/10/24 04:08:47;;;;;;;8.27;4.50;;;9.40;99.90;;;;;;5058106;28;20195;-60
2023/10/24 04:11:16;;;;;;;5.30;4.50;;;9.40;99.90;;;;;;5064444;28;20621;-60
2023/10/24 04:13:43;;;;;;;5.23;4.03;;;9.40;99.90;;;;;;5061508;28;20224;-61
2023/10/24 04:16:10;;;;;;;6.40;4.33;;;9.40;99.90;;;;;;5065411;28;20444;-60
2023/10/24 04:18:36;;;;;;;7.97;5.13;;;9.40;99.90;;;;;;5062220;28;20523;-58
2023/10/24 04:21:01;;;;;;;7.43;4.33;;;9.40;99.90;;;;;;5061257;28;21331;-58
2023/10/24 04:23:28;;;;;;;9.80;4.57;;;9.40;99.90;;;;;;5057630;28;20185;-58
2023/10/24 04:25:54;;;;;;;9.33;4.43;;;9.40;99.90;;;;;;5064245;28;20265;-58
2023/10/24 04:28:19;;;;;;;5.00;4.37;;;9.30;99.90;;;;;;5061917;28;20595;-57
2023/10/24 04:30:45;;;;;;;9.07;4.57;;;9.30;99.90;;;;;;5061798;28;20461;-58
2023/10/24 04:33:11;;;;;;;12.00;5.73;;;9.40;99.90;;;;;;5058219;28;20200;-59
2023/10/24 04:35:41;;;;;;;8.00;5.30;;;9.40;99.90;;;;;;5068603;28;20236;-61
2023/10/24 04:38:06;;;;;;;7.90;5.30;;;9.40;99.90;;;;;;5052953;28;20217;-61
2023/10/24 04:40:35;;;;;;;8.47;5.10;;;9.40;99.90;;;;;;5059922;28;20909;-60
2023/10/24 04:43:01;;;;;;;5.77;4.40;;;9.40;99.90;;;;;;5056077;28;20183;-58
2023/10/24 04:45:29;;;;;;;11.77;5.00;;;9.40;99.90;;;;;;5060217;28;20487;-59
2023/10/24 04:47:55;;;;;;;14.20;4.97;;;9.40;99.90;;;;;;5061867;28;20868;-58
2023/10/24 04:50:21;;;;;;;7.83;5.23;;;9.50;99.90;;;;;;5060643;28;20457;-58
2023/10/24 04:52:48;;;;;;;8.70;5.80;;;9.50;99.90;;;;;;5059372;28;20174;-59
2023/10/24 04:55:14;;;;;;;7.10;5.40;;;9.50;99.90;;;;;;5061837;28;20173;-60
2023/10/24 04:57:42;;;;;;;14.63;5.47;;;9.50;99.90;;;;;;5068363;28;20424;-61
2023/10/24 05:00:11;;;;;;;9.10;4.63;;;9.50;99.90;;;;;;5066555;28;20241;-60
2023/10/24 05:02:37;;;;;;;8.30;5.07;;;9.40;99.90;;;;;;5062753;28;20442;-60
2023/10/24 05:05:03;;;;;;;9.43;4.83;;;9.40;99.90;;;;;;5064827;28;20529;-59
2023/10/24 05:07:28;;;;;;;8.97;4.93;;;9.40;99.90;;;;;;5057537;28;20444;-61
2023/10/24 05:09:54;;;;;;;8.77;5.17;;;9.40;99.90;;;;;;5068013;28;20692;-61
2023/10/24 05:12:19;;;;;;;8.13;4.73;;;9.40;99.90;;;;;;5066367;28;20182;-61
2023/10/24 05:14:45;;;;;;;7.70;5.37;;;9.40;99.90;;;;;;5064241;28;20779;-60
2023/10/24 05:17:11;;;;;;;13.10;5.60;;;9.40;99.90;;;;;;5061369;28;20266;-61
2023/10/24 05:19:36;;;;;;;7.57;5.57;;;9.40;99.90;;;;;;5059951;28;20731;-60
2023/10/24 05:22:02;;;;;;;6.50;5.07;;;9.40;99.90;;;;;;5064946;28;20178;-60
2023/10/24 05:24:28;;;;;;;10.73;4.70;;;9.30;99.90;;;;;;5063200;28;20189;-60
2023/10/24 05:26:54;;;;;;;5.90;4.40;;;9.30;99.90;;;;;;5063833;28;20179;-61
2023/10/24 05:29:19;;;;;;;8.30;5.00;;;9.30;99.90;;;;;;5059097;28;20591;-59
2023/10/24 05:31:45;;;;;;;8.40;5.37;;;9.30;99.90;;;;;;5061624;28;20179;-60
2023/10/24 05:34:10;;;;;;;13.77;5.10;;;9.30;99.90;;;;;;5066731;28;20402;-60
2023/10/24 05:36:36;;;;;;;6.87;5.03;;;9.30;99.90;;;;;;5064527;28;20182;-59
2023/10/24 05:39:02;;;;;;;7.53;5.20;;;9.30;99.90;;;;;;5067138;28;20197;-60
2023/10/24 05:41:27;;;;;;;8.13;4.80;;;9.30;99.90;;;;;;5065788;28;20175;-61
2023/10/24 05:43:53;;;;;;;7.10;4.47;;;9.30;99.90;;;;;;5067168;28;20178;-60
2023/10/24 05:46:18;;;;;;;10.17;4.87;;;9.30;99.90;;;;;;5064838;28;20764;-60
2023/10/24 05:48:44;;;;;;;13.20;5.20;;;9.30;99.90;;;;;;5063091;28;20856;-60
2023/10/24 05:51:10;;;;;;;9.67;5.77;;;9.30;99.90;;;;;;5061255;28;20281;-61
2023/10/24 05:53:35;;;;;;;7.73;5.50;;;9.30;99.90;;;;;;5058638;28;20170;-60
2023/10/24 05:56:04;;;;;;;8.57;5.60;;;9.30;99.90;;;;;;5065487;28;20671;-60
2023/10/24 05:58:30;;;;;;;9.20;5.10;;;9.30;99.90;;;;;;5066599;28;20178;-61
2023/10/24 06:00:55;;;;;;;13.03;5.40;;;9.30;99.90;;;;;;5062068;28;20527;-60
2023/10/24 06:03:21;;;;;;;9.17;4.80;;;9.30;99.90;;;;;;5061910;28;20685;-60
2023/10/24 06:05:49;;;;;;;7.30;4.73;;;9.30;99.90;;;;;;5065319;28;20633;-61
2023/10/24 06:08:15;;;;;;;9.33;5.73;;;9.30;99.90;;;;;;5061802;28;20202;-60
2023/10/24 06:10:41;;;;;;;7.50;5.60;;;9.30;99.90;;;;;;5066886;28;20466;-60
2023/10/24 06:13:06;;;;;;;8.33;5.60;;;9.40;99.90;;;;;;5062836;28;20441;-61
2023/10/24 06:15:32;;;;;;;9.63;5.50;;;9.40;99.90;;;;;;5065810;28;20641;-61
2023/10/24 06:17:58;;;;;;;7.60;4.90;;;9.40;99.90;;;;;;5062522;28;20778;-61
2023/10/24 06:20:23;;;;;;;7.60;5.37;;;9.40;99.90;;;;;;5066723;28;20285;-60
2023/10/24 06:22:49;;;;;;;10.93;5.80;;;9.40;99.90;;;;;;5064554;28;20174;-60
2023/10/24 06:25:14;;;;;;;9.43;5.47;;;9.40;99.90;;;;;;5062325;28;20572;-61
2023/10/24 06:27:41;;;;;;;7.93;4.63;;;9.40;99.90;;;;;;5061444;28;20244;-61
2023/10/24 06:30:07;;;;;;;9.43;5.80;;;9.40;99.90;;;;;;5062955;28;20531;-61
2023/10/24 06:32:33;;;;;;;11.20;5.40;;;9.50;99.90;;;;;;5066547;28;20503;-61
2023/10/24 06:34:58;;;;;;;7.83;5.50;;;9.50;99.90;;;;;;5064030;28;20508;-60
2023/10/24 06:37:24;;;;;;;8.10;5.07;;;9.50;99.90;;;;;;5061875;28;20666;-60
2023/10/24 06:39:49;;;;;;;8.10;5.70;;;9.50;99.90;;;;;;5063855;28;20210;-61
2023/10/24 06:42:15;;;;;;;11.03;6.00;;;9.50;99.90;;;;;;5078037;28;20677;-60
2023/10/24 06:44:41;;;;;;;7.67;5.40;;;9.50;99.90;;;;;;5062143;28;20227;-60
2023/10/24 06:47:06;;;;;;;12.63;6.20;;;9.50;99.90;;;;;;5065800;28;20173;-61
2023/10/24 06:49:32;;;;;;;6.90;5.13;;;9.50;99.90;;;;;;5068442;28;20689;-60
2023/10/24 06:51:58;;;;;;;9.40;5.20;;;9.50;99.90;;;;;;5057958;28;20181;-60
2023/10/24 06:54:23;;;;;;;11.37;5.37;;;9.50;99.90;;;;;;5064906;28;20171;-61
2023/10/24 06:56:49;;;;;;;7.60;5.33;;;9.50;99.90;;;;;;5066201;28;20252;-60
2023/10/24 06:59:14;;;;;;;8.33;5.20;;;9.50;99.90;;;;;;5062646;28;20774;-60
2023/10/24 07:01:40;;;;;;;6.77;4.73;;;9.50;99.90;;;;;;5061045;28;20193;-61
2023/10/24 07:04:05;;;;;;;11.47;5.50;;;9.50;99.90;;;;;;5067148;28;20269;-61
2023/10/24 07:06:31;;;;;;;11.70;5.70;;;9.50;99.90;;;;;;5066601;28;20228;-59
2023/10/24 07:08:57;;;;;;;9.03;5.20;;;9.60;99.90;;;;;;5066332;28;20205;-60
2023/10/24 07:11:22;;;;;;;9.80;5.80;;;9.60;99.90;;;;;;5069124;28;20174;-60
2023/10/24 07:13:48;;;;;;;14.90;6.17;;;9.60;99.90;;;;;;5068592;28;20174;-60
2023/10/24 07:16:16;;;;;;;11.40;6.00;;;9.60;99.90;;;;;;5070010;28;20178;-60
2023/10/24 07:18:42;;;;;;;11.93;6.70;;;9.60;99.90;;;;;;5066954;28;20209;-59
2023/10/24 07:21:08;;;;;;;8.63;6.00;;;9.70;99.90;;;;;;5062336;28;20935;-60
2023/10/24 07:23:33;;;;;;;11.33;5.53;;;9.70;99.90;;;;;;5063515;28;20704;-60
2023/10/24 07:25:59;;;;;;;10.50;6.33;;;9.70;99.90;;;;;;5071191;28;20562;-60
2023/10/24 07:28:25;;;;;;;10.37;5.90;;;9.70;99.90;;;;;;5060659;28;21266;-60
2023/10/24 07:30:51;;;;;;;12.40;5.90;;;9.70;99.90;;;;;;5068479;28;20218;-61
2023/10/24 07:33:20;;;;;;;15.20;9.50;;;9.80;99.90;;;;;;5066616;28;20181;-61
2023/10/24 07:35:48;;;;;;;14.20;8.50;;;9.80;99.90;;;;;;5064527;28;20412;-62
2023/10/24 07:38:14;;;;;;;17.50;8.70;;;9.80;99.90;;;;;;5062766;28;20938;-60
2023/10/24 07:40:39;;;;;;;17.43;9.00;;;9.80;99.90;;;;;;5066739;28;20496;-60
2023/10/24 07:43:05;;;;;;;12.00;8.10;;;9.80;99.90;;;;;;5062782;28;20275;-60
2023/10/24 07:45:31;;;;;;;13.63;7.80;;;9.90;99.90;;;;;;5067422;28;20435;-60
2023/10/24 07:47:57;;;;;;;12.47;7.87;;;9.90;99.90;;;;;;5069097;28;20195;-61
2023/10/24 07:50:23;;;;;;;16.40;7.60;;;9.90;99.90;;;;;;5074463;28;20464;-61
2023/10/24 07:52:48;;;;;;;12.20;6.73;;;9.90;99.90;;;;;;5068934;28;20235;-60
2023/10/24 07:55:14;;;;;;;16.13;8.80;;;10.00;99.90;;;;;;5067368;28;20182;-60
2023/10/24 07:57:39;;;;;;;16.30;8.73;;;10.00;99.90;;;;;;5066216;28;20189;-61
2023/10/24 08:00:07;;;;;;;11.07;7.73;;;10.00;99.90;;;;;;5062337;28;20618;-60
2023/10/24 08:02:33;;;;;;;11.63;6.70;;;10.10;99.90;;;;;;5066561;28;20198;-60
2023/10/24 08:04:58;;;;;;;20.23;6.70;;;10.10;99.90;;;;;;5068096;28;20456;-60
2023/10/24 08:07:24;;;;;;;9.20;6.30;;;10.10;99.90;;;;;;5067615;28;20194;-60
2023/10/24 08:09:50;;;;;;;11.60;6.93;;;10.10;99.90;;;;;;5059498;28;20248;-60
2023/10/24 08:12:15;;;;;;;8.47;6.10;;;10.10;99.90;;;;;;5066685;28;20262;-60
2023/10/24 08:14:41;;;;;;;18.30;6.30;;;10.10;99.90;;;;;;5066964;28;20186;-60
2023/10/24 08:17:07;;;;;;;8.60;5.50;;;10.00;99.90;;;;;;5067925;28;20240;-60
2023/10/24 08:19:32;;;;;;;9.83;6.40;;;10.10;99.90;;;;;;5069453;28;20224;-61
2023/10/24 08:21:58;;;;;;;12.23;5.30;;;10.00;99.90;;;;;;5067411;28;20524;-60
2023/10/24 08:24:23;;;;;;;10.77;6.70;;;10.00;99.90;;;;;;5065688;28;20236;-61
2023/10/24 08:26:49;;;;;;;13.33;7.00;;;10.00;99.90;;;;;;5067530;28;20193;-60
2023/10/24 08:29:14;;;;;;;14.73;6.80;;;10.00;99.90;;;;;;5066877;28;20251;-60
2023/10/24 08:31:40;;;;;;;9.77;7.43;;;10.00;99.90;;;;;;5064020;28;20272;-60
2023/10/24 08:34:06;;;;;;;9.80;6.83;;;10.00;99.90;;;;;;5062468;28;20257;-60
2023/10/24 08:36:32;;;;;;;16.07;7.00;;;10.00;99.90;;;;;;5064788;28;20170;-60
2023/10/24 08:38:58;;;;;;;15.93;8.13;;;10.00;99.90;;;;;;5068265;28;20457;-60
2023/10/24 08:41:24;;;;;;;14.83;6.97;;;10.00;99.90;;;;;;5070553;28;20175;-61
2023/10/24 08:43:50;;;;;;;13.40;8.07;;;10.00;99.90;;;;;;5062959;28;20443;-61
2023/10/24 08:46:15;;;;;;;10.63;8.00;;;10.00;99.90;;;;;;5064512;28;20692;-60
2023/10/24 08:48:42;;;;;;;16.73;7.97;;;10.00;99.90;;;;;;5068134;28;20471;-60
2023/10/24 08:51:08;;;;;;;8.80;7.10;;;10.00;99.90;;;;;;5067974;28;20698;-61
2023/10/24 08:53:33;;;;;;;13.23;7.83;;;10.00;99.90;;;;;;5065095;28;20524;-60
2023/10/24 08:56:00;;;;;;;11.30;7.47;;;10.10;99.90;;;;;;5064850;28;20179;-61
2023/10/24 08:58:28;;;;;;;16.17;8.20;;;10.10;99.90;;;;;;5063776;28;21786;-61
2023/10/24 09:00:54;;;;;;;13.23;8.40;;;10.10;99.90;;;;;;5064933;28;20448;-61
2023/10/24 09:03:21;;;;;;;19.03;8.50;;;10.10;99.90;;;;;;5062238;28;20440;-60
2023/10/24 09:05:47;;;;;;;10.97;8.00;;;10.20;99.90;;;;;;5062205;28;20440;-62
2023/10/24 09:08:14;;;;;;;20.93;8.37;;;10.20;99.90;;;;;;5056864;28;20548;-61
2023/10/24 09:10:39;;;;;;;12.97;8.13;;;10.20;99.90;;;;;;5067285;28;20961;-61
2023/10/24 09:13:05;;;;;;;11.07;8.10;;;10.20;99.90;;;;;;5066145;28;20409;-60
2023/10/24 09:15:34;;;;;;;11.33;7.70;;;10.30;99.90;;;;;;5067221;28;20171;-60
2023/10/24 09:18:15;;;;;;;11.27;7.53;;;10.30;99.90;;;;;;5033909;28;20444;-61
2023/10/24 09:20:42;;;;;;;12.70;7.83;;;10.30;99.90;;;;;;5065096;28;20456;-60
2023/10/24 09:23:11;;;;;;;13.13;8.17;;;10.30;99.90;;;;;;5068383;28;20424;-61
2023/10/24 09:25:37;;;;;;;16.33;8.43;;;10.30;99.90;;;;;;5065054;28;20428;-61
2023/10/24 09:28:17;;;;;;;17.00;9.40;;;10.40;99.90;;;;;;5062917;28;20865;-60
2023/10/24 09:30:43;;;;;;;16.13;9.33;;;10.40;99.90;;;;;;5057371;28;20838;-61
2023/10/24 09:33:08;;;;;;;18.37;9.30;;;10.40;99.90;;;;;;5064737;28;20424;-60
2023/10/24 09:35:36;;;;;;;18.57;9.50;;;10.40;99.90;;;;;;5066543;28;20193;-60
2023/10/24 09:38:03;;;;;;;13.67;8.33;;;10.40;99.90;;;;;;5063873;28;20179;-60
2023/10/24 09:40:36;;;;;;;9.93;7.53;;;10.40;99.90;;;;;;5063479;28;20491;-61
2023/10/24 09:43:15;;;;;;;10.63;8.07;;;10.40;99.90;;;;;;5057198;28;20978;-60
2023/10/24 09:45:44;;;;;;;15.40;8.00;;;10.40;99.90;;;;;;5063286;28;20884;-61
2023/10/24 09:48:11;;;;;;;18.67;8.60;;;10.40;99.90;;;;;;5071288;28;20463;-60
2023/10/24 09:50:39;;;;;;;13.87;8.33;;;10.40;99.90;;;;;;5062203;28;20461;-60
2023/10/24 09:53:06;;;;;;;11.37;7.20;;;10.40;99.90;;;;;;5064205;28;20432;-60
2023/10/24 09:55:34;;;;;;;14.93;7.70;;;10.40;99.90;;;;;;5064987;28;20447;-61
2023/10/24 09:58:01;;;;;;;15.83;8.53;;;10.50;99.90;;;;;;5062533;28;20429;-61
2023/10/24 10:00:27;;;;;;;13.33;9.20;;;10.50;99.90;;;;;;5064066;28;21833;-61
2023/10/24 10:02:58;;;;;;;14.20;8.07;;;10.50;99.90;;;;;;5064165;28;20946;-61
2023/10/24 10:05:27;;;;;;;15.10;8.40;;;10.50;99.90;;;;;;5057037;28;20175;-61
2023/10/24 10:07:54;;;;;;;17.33;8.50;;;10.50;99.90;;;;;;5059181;28;20471;-61
2023/10/24 10:10:22;;;;;;;22.50;8.73;;;10.50;99.90;;;;;;5063076;28;20452;-61
2023/10/24 10:12:50;;;;;;;10.40;8.00;;;10.50;99.90;;;;;;5062827;28;20448;-61
2023/10/24 10:15:37;;;;;;;15.70;8.17;;;10.50;99.90;;;;;;5066060;28;20444;-60
2023/10/24 10:18:40;;;;;;;19.40;8.40;;;10.50;99.90;;;;;;5062839;28;20428;-60
2023/10/24 10:21:21;;;;;;;9.40;7.40;;;10.50;99.90;;;;;;5060915;28;20452;-61
2023/10/24 10:24:08;;;;;;;13.50;8.67;;;10.50;99.90;;;;;;5068647;28;20440;-60
2023/10/24 10:26:47;;;;;;;13.43;8.80;;;10.50;99.90;;;;;;5065261;28;20438;-59
2023/10/24 10:29:20;;;;;;;14.40;9.20;;;10.50;99.90;;;;;;5064656;28;20506;-61
2023/10/24 10:32:05;;;;;;;20.40;9.23;;;10.50;99.90;;;;;;5057556;28;20416;-60
2023/10/24 10:34:36;;;;;;;11.70;8.90;;;10.50;99.90;;;;;;5058596;28;20474;-60
2023/10/24 10:37:01;;;;;;;12.17;8.47;;;10.50;99.90;;;;;;5061333;28;20470;-60
2023/10/24 10:39:29;;;;;;;13.50;8.90;;;10.50;99.90;;;;;;5068465;28;20977;-61
2023/10/24 10:41:55;;;;;;;12.97;8.70;;;10.50;99.90;;;;;;5063248;28;20253;-60
2023/10/24 10:44:39;;;;;;;18.70;11.23;;;10.60;99.90;;;;;;5061333;28;20437;-60
2023/10/24 10:47:06;;;;;;;16.47;9.60;;;10.60;99.90;;;;;;5062475;28;20516;-59
2023/10/24 10:49:44;;;;;;;13.63;10.43;;;10.60;99.90;;;;;;5065125;28;20951;-59
2023/10/24 10:52:21;;;;;;;18.27;12.10;;;10.70;99.90;;;;;;5065228;28;20464;-61
2023/10/24 10:55:19;;;;;;;17.50;12.33;;;10.70;99.90;;;;;;5058127;28;20420;-62
2023/10/24 10:58:23;;;;;;;27.00;13.93;;;10.70;99.90;;;;;;5054128;28;20421;-61
2023/10/24 11:00:51;;;;;;;26.03;13.37;;;10.70;99.90;;;;;;5062076;28;20538;-60
2023/10/24 11:03:19;;;;;;;27.33;15.13;;;10.80;99.90;;;;;;5062329;28;20444;-60
2023/10/24 11:05:45;;;;;;;26.77;13.77;;;10.80;99.90;;;;;;5067853;28;20419;-61
2023/10/24 11:08:18;;;;;;;22.97;13.83;;;10.90;99.90;;;;;;5063676;28;20532;-60
2023/10/24 11:10:59;;;;;;;27.93;14.87;;;10.90;99.90;;;;;;5067118;28;20202;-62
2023/10/24 11:13:44;;;;;;;27.20;15.57;;;10.90;99.90;;;;;;5065864;28;21091;-60
2023/10/24 11:16:12;;;;;;;30.70;14.67;;;10.90;99.90;;;;;;5063439;28;20443;-61
2023/10/24 11:18:38;;;;;;;20.13;12.03;;;10.90;99.90;;;;;;5064575;28;20432;-60
2023/10/24 11:21:07;;;;;;;18.87;12.67;;;10.90;99.90;;;;;;5057065;28;20463;-61
2023/10/24 11:23:33;;;;;;;21.13;12.73;;;11.00;99.90;;;;;;5062434;28;20432;-61
2023/10/24 11:26:00;;;;;;;22.07;12.67;;;11.00;99.90;;;;;;5062566;28;20888;-60
2023/10/24 11:28:27;;;;;;;21.67;12.73;;;11.00;99.90;;;;;;5062596;28;20457;-61
2023/10/24 11:30:57;;;;;;;23.53;14.87;;;11.00;99.90;;;;;;5067300;28;20856;-61
2023/10/24 11:33:23;;;;;;;31.00;14.67;;;11.10;99.90;;;;;;5064674;28;20423;-61
2023/10/24 11:35:49;;;;;;;18.83;11.37;;;11.10;99.90;;;;;;5060870;28;20874;-60
2023/10/24 11:38:15;;;;;;;17.63;10.80;;;11.10;99.90;;;;;;5062440;28;20420;-61
2023/10/24 11:40:41;;;;;;;18.03;10.90;;;11.10;99.90;;;;;;5063013;28;20889;-61
2023/10/24 11:43:08;;;;;;;19.83;11.27;;;11.10;99.90;;;;;;5061030;28;20178;-61
2023/10/24 11:45:37;;;;;;;16.50;10.40;;;11.20;99.90;;;;;;5065704;28;20470;-61
2023/10/24 11:48:06;;;;;;;18.03;11.17;;;11.20;99.90;;;;;;5061443;28;20463;-60
2023/10/24 11:50:45;;;;;;;18.23;9.90;;;11.20;99.90;;;;;;5068573;28;20452;-60
2023/10/24 11:53:18;;;;;;;15.87;9.93;;;11.20;99.90;;;;;;5064408;28;20464;-61
2023/10/24 11:55:44;;;;;;;19.20;10.93;;;11.20;99.90;;;;;;5059948;28;20507;-61
2023/10/24 11:58:11;;;;;;;25.30;11.70;;;11.20;99.90;;;;;;5066911;28;20511;-61
2023/10/24 12:00:40;;;;;;;19.20;12.37;;;11.30;99.90;;;;;;5062507;28;20202;-61
2023/10/24 12:03:06;;;;;;;14.93;10.33;;;11.30;99.90;;;;;;5065958;28;21129;-61
2023/10/24 12:05:32;;;;;;;15.97;10.47;;;11.40;99.90;;;;;;5062873;28;20456;-60
2023/10/24 12:08:02;;;;;;;20.90;12.50;;;11.40;99.90;;;;;;5058649;28;20532;-61
2023/10/24 12:10:29;;;;;;;17.43;11.00;;;11.40;99.90;;;;;;5063084;28;20449;-61
2023/10/24 12:13:02;;;;;;;20.47;11.57;;;11.40;99.90;;;;;;5067661;28;20495;-61
2023/10/24 12:15:32;;;;;;;23.97;13.50;;;11.40;99.90;;;;;;5063712;28;20421;-61
2023/10/24 12:18:15;;;;;;;19.57;13.00;;;11.50;99.90;;;;;;5065687;28;20432;-61
2023/10/24 12:20:41;;;;;;;23.70;12.40;;;11.50;99.90;;;;;;5068923;28;20441;-60
2023/10/24 12:23:06;;;;;;;24.03;12.83;;;11.60;99.90;;;;;;5067323;28;20428;-61
2023/10/24 12:25:33;;;;;;;21.63;11.90;;;11.60;99.90;;;;;;5064067;28;20668;-60
2023/10/24 12:27:59;;;;;;;18.10;12.10;;;11.60;99.90;;;;;;5067431;28;20232;-61
2023/10/24 12:30:25;;;;;;;20.03;11.60;;;11.60;99.90;;;;;;5067773;28;21147;-61
2023/10/24 12:32:51;;;;;;;19.53;11.07;;;11.70;99.90;;;;;;5069227;28;20174;-60
2023/10/24 12:35:17;;;;;;;18.57;11.53;;;11.70;99.90;;;;;;5061637;28;20421;-59
2023/10/24 12:37:42;;;;;;;19.07;11.10;;;11.70;99.90;;;;;;5067197;28;20226;-61
2023/10/24 12:40:08;;;;;;;16.00;11.50;;;11.80;99.90;;;;;;5058459;28;20297;-61
2023/10/24 12:42:34;;;;;;;23.43;13.30;;;11.80;99.90;;;;;;5060612;28;20189;-62
2023/10/24 12:45:01;;;;;;;16.70;10.67;;;11.80;99.90;;;;;;5066085;28;20191;-60